sensor_id;sensor_type;location;lat;lon;timestamp;pressure;altitude;pressure_sealevel;temperature;humidity
250;BME280;109;19.806;-70.704;2023-04-27T00:01:49;101282.31;;;26.39;62.09
250;BME280;109;19.806;-70.704;2023-04-27T00:04:15;101280.31;;;26.42;62.30
250;BME280;109;19.806;-70.704;2023-04-27T00:06:42;101285.69;;;26.42;62.14
250;BME280;109;19.806;-70.704;2023-04-27T00:09:08;101290.88;;;26.28;62.52
250;BME280;109;19.806;-70.704;2023-04-27T00:11:35;101289.69;;;26.16;63.29
250;BME280;109;19.806;-70.704;2023-04-27T00:14:01;101301.88;;;26.24;63.49
250;BME280;109;19.806;-70.704;2023-04-27T00:16:28;101302.47;;;26.29;62.44
250;BME280;109;19.806;-70.704;2023-04-27T00:18:54;101307.06;;;26.27;62.83
250;BME280;109;19.806;-70.704;2023-04-27T00:21:21;101301.22;;;26.19;62.67
250;BME280;109;19.806;-70.704;2023-04-27T00:23:47;101302.97;;;26.20;62.42
250;BME280;109;19.806;-70.704;2023-04-27T00:26:13;101296.66;;;26.21;61.96
250;BME280;109;19.806;-70.704;2023-04-27T00:28:43;101298.06;;;26.10;61.48
250;BME280;109;19.806;-70.704;2023-04-27T00:31:09;101300.28;;;26.20;61.97
250;BME280;109;19.806;-70.704;2023-04-27T00:33:36;101300.84;;;26.26;61.83
250;BME280;109;19.806;-70.704;2023-04-27T00:36:02;101302.97;;;26.37;61.57
250;BME280;109;19.806;-70.704;2023-04-27T00:38:29;101300.50;;;26.32;62.35
250;BME280;109;19.806;-70.704;2023-04-27T00:41:06;101306.91;;;26.30;62.17
250;BME280;109;19.806;-70.704;2023-04-27T00:43:40;101311.84;;;26.39;61.95
250;BME280;109;19.806;-70.704;2023-04-27T00:46:07;101307.75;;;26.30;60.67
250;BME280;109;19.806;-70.704;2023-04-27T00:48:34;101307.34;;;26.39;60.68
250;BME280;109;19.806;-70.704;2023-04-27T00:51:01;101309.84;;;26.42;59.97
250;BME280;109;19.806;-70.704;2023-04-27T00:53:28;101304.66;;;26.39;59.38
250;BME280;109;19.806;-70.704;2023-04-27T00:55:54;101307.69;;;26.32;58.95
250;BME280;109;19.806;-70.704;2023-04-27T00:58:22;101315.03;;;26.28;58.75
250;BME280;109;19.806;-70.704;2023-04-27T01:00:55;101322.06;;;26.31;58.79
250;BME280;109;19.806;-70.704;2023-04-27T01:03:22;101330.97;;;26.31;58.87
250;BME280;109;19.806;-70.704;2023-04-27T01:05:55;101338.56;;;26.40;58.14
250;BME280;109;19.806;-70.704;2023-04-27T01:08:24;101337.81;;;26.38;57.99
250;BME280;109;19.806;-70.704;2023-04-27T01:10:57;101330.44;;;26.42;57.75
250;BME280;109;19.806;-70.704;2023-04-27T01:13:24;101336.13;;;26.36;57.89
250;BME280;109;19.806;-70.704;2023-04-27T01:15:56;101325.72;;;26.47;58.36
250;BME280;109;19.806;-70.704;2023-04-27T01:18:22;101330.22;;;26.46;58.10
250;BME280;109;19.806;-70.704;2023-04-27T01:20:56;101327.31;;;26.51;57.82
250;BME280;109;19.806;-70.704;2023-04-27T01:23:22;101329.00;;;26.35;58.23
250;BME280;109;19.806;-70.704;2023-04-27T01:25:55;101338.78;;;26.36;57.78
250;BME280;109;19.806;-70.704;2023-04-27T01:28:22;101347.22;;;26.28;58.02
250;BME280;109;19.806;-70.704;2023-04-27T01:30:55;101354.09;;;26.34;58.05
250;BME280;109;19.806;-70.704;2023-04-27T01:33:24;101343.53;;;26.31;58.53
250;BME280;109;19.806;-70.704;2023-04-27T01:35:57;101343.44;;;26.32;57.95
250;BME280;109;19.806;-70.704;2023-04-27T01:38:46;101355.38;;;26.27;58.38
250;BME280;109;19.806;-70.704;2023-04-27T01:41:19;101344.38;;;26.31;58.42
250;BME280;109;19.806;-70.704;2023-04-27T01:43:46;101348.16;;;26.27;58.88
250;BME280;109;19.806;-70.704;2023-04-27T01:46:18;101346.75;;;26.20;59.65
250;BME280;109;19.806;-70.704;2023-04-27T01:48:45;101347.16;;;26.12;60.17
250;BME280;109;19.806;-70.704;2023-04-27T01:51:18;101347.22;;;26.11;60.69
250;BME280;109;19.806;-70.704;2023-04-27T01:53:45;101351.81;;;26.09;60.59
250;BME280;109;19.806;-70.704;2023-04-27T01:56:18;101362.81;;;26.03;60.58
250;BME280;109;19.806;-70.704;2023-04-27T01:58:47;101357.38;;;25.87;60.45
250;BME280;109;19.806;-70.704;2023-04-27T02:01:20;101361.41;;;25.96;60.95
250;BME280;109;19.806;-70.704;2023-04-27T02:03:47;101368.38;;;26.00;60.41
250;BME280;109;19.806;-70.704;2023-04-27T02:06:20;101377.75;;;26.08;60.27
250;BME280;109;19.806;-70.704;2023-04-27T02:08:47;101380.28;;;26.11;60.58
250;BME280;109;19.806;-70.704;2023-04-27T02:11:20;101375.16;;;26.07;60.66
250;BME280;109;19.806;-70.704;2023-04-27T02:13:49;101363.13;;;25.97;60.60
250;BME280;109;19.806;-70.704;2023-04-27T02:16:37;101365.66;;;25.81;60.68
250;BME280;109;19.806;-70.704;2023-04-27T02:19:09;101363.75;;;25.85;60.57
250;BME280;109;19.806;-70.704;2023-04-27T02:21:36;101365.25;;;25.90;60.39
250;BME280;109;19.806;-70.704;2023-04-27T02:24:10;101361.47;;;25.94;60.78
250;BME280;109;19.806;-70.704;2023-04-27T02:26:37;101363.50;;;25.89;60.66
250;BME280;109;19.806;-70.704;2023-04-27T02:29:10;101365.75;;;25.98;60.46
250;BME280;109;19.806;-70.704;2023-04-27T02:31:37;101374.00;;;25.94;59.85
250;BME280;109;19.806;-70.704;2023-04-27T02:34:12;101361.88;;;25.87;60.00
250;BME280;109;19.806;-70.704;2023-04-27T02:36:38;101361.00;;;25.86;60.73
250;BME280;109;19.806;-70.704;2023-04-27T02:39:11;101367.41;;;25.82;60.44
250;BME280;109;19.806;-70.704;2023-04-27T02:41:51;101370.53;;;25.92;60.31
250;BME280;109;19.806;-70.704;2023-04-27T02:44:18;101365.91;;;25.95;60.15
250;BME280;109;19.806;-70.704;2023-04-27T02:46:50;101367.78;;;25.93;60.45
250;BME280;109;19.806;-70.704;2023-04-27T02:49:17;101361.53;;;25.93;59.99
250;BME280;109;19.806;-70.704;2023-04-27T02:51:49;101358.94;;;25.91;60.59
250;BME280;109;19.806;-70.704;2023-04-27T02:54:16;101359.88;;;25.71;60.67
250;BME280;109;19.806;-70.704;2023-04-27T02:56:48;101353.88;;;25.66;60.65
250;BME280;109;19.806;-70.704;2023-04-27T02:59:15;101357.34;;;25.68;60.57
250;BME280;109;19.806;-70.704;2023-04-27T03:01:48;101347.34;;;25.72;60.86
250;BME280;109;19.806;-70.704;2023-04-27T03:04:15;101349.84;;;25.75;60.30
250;BME280;109;19.806;-70.704;2023-04-27T03:06:49;101353.13;;;25.81;59.84
250;BME280;109;19.806;-70.704;2023-04-27T03:09:16;101348.63;;;25.82;60.16
250;BME280;109;19.806;-70.704;2023-04-27T03:11:49;101354.59;;;25.70;60.06
250;BME280;109;19.806;-70.704;2023-04-27T03:14:23;101350.25;;;25.67;59.89
250;BME280;109;19.806;-70.704;2023-04-27T03:16:56;101344.22;;;25.62;60.15
250;BME280;109;19.806;-70.704;2023-04-27T03:19:23;101348.75;;;25.62;60.29
250;BME280;109;19.806;-70.704;2023-04-27T03:21:56;101345.41;;;25.57;60.12
250;BME280;109;19.806;-70.704;2023-04-27T03:24:23;101330.59;;;25.67;59.74
250;BME280;109;19.806;-70.704;2023-04-27T03:26:56;101331.81;;;25.78;59.49
250;BME280;109;19.806;-70.704;2023-04-27T03:29:23;101330.00;;;25.79;59.97
250;BME280;109;19.806;-70.704;2023-04-27T03:31:58;101328.94;;;25.83;59.20
250;BME280;109;19.806;-70.704;2023-04-27T03:34:24;101322.75;;;25.81;59.71
250;BME280;109;19.806;-70.704;2023-04-27T03:36:57;101327.25;;;25.80;59.76
250;BME280;109;19.806;-70.704;2023-04-27T03:39:44;101318.34;;;25.80;59.43
250;BME280;109;19.806;-70.704;2023-04-27T03:42:17;101319.09;;;25.65;60.01
250;BME280;109;19.806;-70.704;2023-04-27T03:44:44;101304.06;;;25.43;60.39
250;BME280;109;19.806;-70.704;2023-04-27T03:47:17;101299.44;;;25.47;60.23
250;BME280;109;19.806;-70.704;2023-04-27T03:49:44;101293.03;;;25.50;60.70
250;BME280;109;19.806;-70.704;2023-04-27T03:52:17;101293.53;;;25.58;60.09
250;BME280;109;19.806;-70.704;2023-04-27T03:54:44;101301.78;;;25.53;60.45
250;BME280;109;19.806;-70.704;2023-04-27T03:57:17;101288.41;;;25.53;60.01
250;BME280;109;19.806;-70.704;2023-04-27T03:59:44;101291.16;;;25.52;59.60
250;BME280;109;19.806;-70.704;2023-04-27T04:02:17;101283.63;;;25.60;59.86
250;BME280;109;19.806;-70.704;2023-04-27T04:04:44;101295.91;;;25.64;59.78
250;BME280;109;19.806;-70.704;2023-04-27T04:07:17;101305.84;;;25.62;60.02
250;BME280;109;19.806;-70.704;2023-04-27T04:09:44;101299.84;;;25.57;59.57
250;BME280;109;19.806;-70.704;2023-04-27T04:12:17;101291.00;;;25.55;60.57
250;BME280;109;19.806;-70.704;2023-04-27T04:14:51;101289.41;;;25.51;59.77
250;BME280;109;19.806;-70.704;2023-04-27T04:17:24;101291.22;;;25.50;60.38
250;BME280;109;19.806;-70.704;2023-04-27T04:19:50;101295.50;;;25.54;59.95
250;BME280;109;19.806;-70.704;2023-04-27T04:22:23;101300.63;;;25.59;60.04
250;BME280;109;19.806;-70.704;2023-04-27T04:24:50;101302.44;;;25.58;60.15
250;BME280;109;19.806;-70.704;2023-04-27T04:27:22;101304.00;;;25.62;60.34
250;BME280;109;19.806;-70.704;2023-04-27T04:29:49;101304.25;;;25.58;60.11
250;BME280;109;19.806;-70.704;2023-04-27T04:32:22;101310.34;;;25.61;60.33
250;BME280;109;19.806;-70.704;2023-04-27T04:34:57;101302.44;;;25.58;60.77
250;BME280;109;19.806;-70.704;2023-04-27T04:37:34;101306.56;;;25.65;60.77
250;BME280;109;19.806;-70.704;2023-04-27T04:40:21;101301.44;;;25.61;59.88
250;BME280;109;19.806;-70.704;2023-04-27T04:42:54;101287.25;;;25.59;60.07
250;BME280;109;19.806;-70.704;2023-04-27T04:45:21;101287.66;;;25.50;60.33
250;BME280;109;19.806;-70.704;2023-04-27T04:47:56;101279.78;;;25.47;60.75
250;BME280;109;19.806;-70.704;2023-04-27T04:50:32;101288.31;;;25.55;60.46
250;BME280;109;19.806;-70.704;2023-04-27T04:53:19;101293.19;;;25.47;60.11
250;BME280;109;19.806;-70.704;2023-04-27T04:55:54;101288.31;;;25.55;59.75
250;BME280;109;19.806;-70.704;2023-04-27T04:58:21;101288.97;;;25.60;59.52
250;BME280;109;19.806;-70.704;2023-04-27T05:00:54;101292.47;;;25.62;59.36
250;BME280;109;19.806;-70.704;2023-04-27T05:03:21;101286.69;;;25.69;59.05
250;BME280;109;19.806;-70.704;2023-04-27T05:05:54;101284.75;;;25.73;58.87
250;BME280;109;19.806;-70.704;2023-04-27T05:08:21;101278.34;;;25.75;59.32
250;BME280;109;19.806;-70.704;2023-04-27T05:10:53;101281.66;;;25.80;59.30
250;BME280;109;19.806;-70.704;2023-04-27T05:13:20;101271.69;;;25.84;58.69
250;BME280;109;19.806;-70.704;2023-04-27T05:16:03;101270.69;;;25.87;58.56
250;BME280;109;19.806;-70.704;2023-04-27T05:18:39;101260.97;;;25.84;59.10
250;BME280;109;19.806;-70.704;2023-04-27T05:21:13;101252.69;;;25.89;59.26
250;BME280;109;19.806;-70.704;2023-04-27T05:23:46;101250.09;;;25.87;59.24
250;BME280;109;19.806;-70.704;2023-04-27T05:26:14;101248.28;;;25.88;59.38
250;BME280;109;19.806;-70.704;2023-04-27T05:28:47;101252.09;;;25.82;59.32
250;BME280;109;19.806;-70.704;2023-04-27T05:31:14;101242.47;;;25.78;59.73
250;BME280;109;19.806;-70.704;2023-04-27T05:33:55;101239.25;;;25.71;60.06
250;BME280;109;19.806;-70.704;2023-04-27T05:36:27;101237.19;;;25.76;59.61
250;BME280;109;19.806;-70.704;2023-04-27T05:39:14;101232.88;;;25.74;59.98
250;BME280;109;19.806;-70.704;2023-04-27T05:41:47;101239.94;;;25.75;59.68
250;BME280;109;19.806;-70.704;2023-04-27T05:44:14;101236.78;;;25.67;60.24
250;BME280;109;19.806;-70.704;2023-04-27T05:46:46;101233.16;;;25.68;59.86
250;BME280;109;19.806;-70.704;2023-04-27T05:49:13;101227.94;;;25.65;60.06
250;BME280;109;19.806;-70.704;2023-04-27T05:51:45;101227.41;;;25.58;60.62
250;BME280;109;19.806;-70.704;2023-04-27T05:54:12;101232.09;;;25.53;60.35
250;BME280;109;19.806;-70.704;2023-04-27T05:56:44;101230.94;;;25.59;60.57
250;BME280;109;19.806;-70.704;2023-04-27T05:59:11;101231.88;;;25.58;60.46
250;BME280;109;19.806;-70.704;2023-04-27T06:01:44;101230.28;;;25.54;60.34
250;BME280;109;19.806;-70.704;2023-04-27T06:04:11;101229.44;;;25.53;60.22
250;BME280;109;19.806;-70.704;2023-04-27T06:06:43;101234.56;;;25.58;61.16
250;BME280;109;19.806;-70.704;2023-04-27T06:09:10;101235.91;;;25.66;60.99
250;BME280;109;19.806;-70.704;2023-04-27T06:11:43;101225.34;;;25.63;60.94
250;BME280;109;19.806;-70.704;2023-04-27T06:14:12;101225.97;;;25.68;61.12
250;BME280;109;19.806;-70.704;2023-04-27T06:16:44;101227.31;;;25.60;61.49
250;BME280;109;19.806;-70.704;2023-04-27T06:19:11;101233.03;;;25.52;61.82
250;BME280;109;19.806;-70.704;2023-04-27T06:21:44;101225.16;;;25.49;62.21
250;BME280;109;19.806;-70.704;2023-04-27T06:24:11;101224.53;;;25.44;61.90
250;BME280;109;19.806;-70.704;2023-04-27T06:26:52;101226.34;;;25.43;62.42
250;BME280;109;19.806;-70.704;2023-04-27T06:29:25;101223.94;;;25.37;62.15
250;BME280;109;19.806;-70.704;2023-04-27T06:31:52;101214.81;;;25.41;62.29
250;BME280;109;19.806;-70.704;2023-04-27T06:34:24;101219.25;;;25.42;62.33
250;BME280;109;19.806;-70.704;2023-04-27T06:36:51;101218.22;;;25.45;62.06
250;BME280;109;19.806;-70.704;2023-04-27T06:39:24;101215.84;;;25.39;61.87
250;BME280;109;19.806;-70.704;2023-04-27T06:42:04;101214.69;;;25.44;62.15
250;BME280;109;19.806;-70.704;2023-04-27T06:44:31;101214.59;;;25.46;61.90
250;BME280;109;19.806;-70.704;2023-04-27T06:47:04;101221.19;;;25.39;62.04
250;BME280;109;19.806;-70.704;2023-04-27T06:49:31;101216.78;;;25.38;61.57
250;BME280;109;19.806;-70.704;2023-04-27T06:52:04;101220.66;;;25.32;61.78
250;BME280;109;19.806;-70.704;2023-04-27T06:54:31;101223.25;;;25.34;61.85
250;BME280;109;19.806;-70.704;2023-04-27T06:57:03;101215.28;;;25.32;62.19
250;BME280;109;19.806;-70.704;2023-04-27T06:59:31;101215.16;;;25.35;61.99
250;BME280;109;19.806;-70.704;2023-04-27T07:02:12;101213.72;;;25.27;61.94
250;BME280;109;19.806;-70.704;2023-04-27T07:04:45;101214.75;;;25.24;61.97
250;BME280;109;19.806;-70.704;2023-04-27T07:07:12;101209.31;;;25.26;62.61
250;BME280;109;19.806;-70.704;2023-04-27T07:09:45;101211.66;;;25.33;62.58
250;BME280;109;19.806;-70.704;2023-04-27T07:12:12;101212.59;;;25.32;61.94
250;BME280;109;19.806;-70.704;2023-04-27T07:14:44;101205.50;;;25.31;62.45
250;BME280;109;19.806;-70.704;2023-04-27T07:17:11;101199.06;;;25.35;62.02
250;BME280;109;19.806;-70.704;2023-04-27T07:19:43;101197.53;;;25.30;62.31
250;BME280;109;19.806;-70.704;2023-04-27T07:22:10;101189.88;;;25.22;62.29
250;BME280;109;19.806;-70.704;2023-04-27T07:24:42;101193.84;;;25.32;62.19
250;BME280;109;19.806;-70.704;2023-04-27T07:27:09;101193.94;;;25.31;61.98
250;BME280;109;19.806;-70.704;2023-04-27T07:29:42;101200.41;;;25.25;62.03
250;BME280;109;19.806;-70.704;2023-04-27T07:32:09;101202.06;;;25.28;62.41
250;BME280;109;19.806;-70.704;2023-04-27T07:34:42;101202.91;;;25.30;62.49
250;BME280;109;19.806;-70.704;2023-04-27T07:37:09;101198.44;;;25.29;62.22
250;BME280;109;19.806;-70.704;2023-04-27T07:39:41;101197.59;;;25.28;62.63
250;BME280;109;19.806;-70.704;2023-04-27T07:42:21;101189.75;;;25.24;62.27
250;BME280;109;19.806;-70.704;2023-04-27T07:44:56;101182.53;;;25.26;62.51
250;BME280;109;19.806;-70.704;2023-04-27T07:47:28;101183.00;;;25.35;62.79
250;BME280;109;19.806;-70.704;2023-04-27T07:49:55;101180.31;;;25.35;62.09
250;BME280;109;19.806;-70.704;2023-04-27T07:52:27;101179.78;;;25.27;62.68
250;BME280;109;19.806;-70.704;2023-04-27T07:54:54;101181.66;;;25.25;62.73
250;BME280;109;19.806;-70.704;2023-04-27T07:57:26;101175.16;;;25.31;62.32
250;BME280;109;19.806;-70.704;2023-04-27T07:59:53;101171.22;;;25.38;62.53
250;BME280;109;19.806;-70.704;2023-04-27T08:02:26;101181.81;;;25.41;62.38
250;BME280;109;19.806;-70.704;2023-04-27T08:05:02;101188.03;;;25.41;62.27
250;BME280;109;19.806;-70.704;2023-04-27T08:07:29;101187.38;;;25.36;62.29
250;BME280;109;19.806;-70.704;2023-04-27T08:10:04;101187.38;;;25.36;62.05
250;BME280;109;19.806;-70.704;2023-04-27T08:12:31;101184.69;;;25.36;62.05
250;BME280;109;19.806;-70.704;2023-04-27T08:15:05;101185.50;;;25.38;62.14
250;BME280;109;19.806;-70.704;2023-04-27T08:17:32;101192.38;;;25.25;62.11
250;BME280;109;19.806;-70.704;2023-04-27T08:20:06;101190.00;;;25.19;62.15
250;BME280;109;19.806;-70.704;2023-04-27T08:22:34;101186.31;;;25.22;61.71
250;BME280;109;19.806;-70.704;2023-04-27T08:25:08;101202.38;;;25.22;61.72
250;BME280;109;19.806;-70.704;2023-04-27T08:27:38;101189.06;;;25.20;62.13
250;BME280;109;19.806;-70.704;2023-04-27T08:30:15;101189.34;;;25.14;62.31
250;BME280;109;19.806;-70.704;2023-04-27T08:32:41;101181.38;;;25.13;61.87
250;BME280;109;19.806;-70.704;2023-04-27T08:35:14;101181.25;;;25.16;62.13
250;BME280;109;19.806;-70.704;2023-04-27T08:37:41;101180.31;;;25.17;61.70
250;BME280;109;19.806;-70.704;2023-04-27T08:40:15;101184.94;;;25.13;61.97
250;BME280;109;19.806;-70.704;2023-04-27T08:43:03;101182.41;;;25.10;61.84
250;BME280;109;19.806;-70.704;2023-04-27T08:45:37;101178.50;;;25.17;61.95
250;BME280;109;19.806;-70.704;2023-04-27T08:48:04;101179.34;;;25.18;61.66
250;BME280;109;19.806;-70.704;2023-04-27T08:50:42;101182.91;;;25.18;62.07
250;BME280;109;19.806;-70.704;2023-04-27T08:53:19;101182.03;;;25.18;61.68
250;BME280;109;19.806;-70.704;2023-04-27T08:55:53;101183.72;;;25.20;62.01
250;BME280;109;19.806;-70.704;2023-04-27T08:58:34;101180.09;;;25.21;61.86
250;BME280;109;19.806;-70.704;2023-04-27T09:01:09;101179.34;;;25.18;61.59
250;BME280;109;19.806;-70.704;2023-04-27T09:03:36;101173.28;;;25.14;61.79
250;BME280;109;19.806;-70.704;2023-04-27T09:06:09;101173.94;;;25.19;61.94
250;BME280;109;19.806;-70.704;2023-04-27T09:08:49;101179.44;;;25.16;61.91
250;BME280;109;19.806;-70.704;2023-04-27T09:11:36;101185.72;;;25.15;61.64
250;BME280;109;19.806;-70.704;2023-04-27T09:14:21;101178.28;;;25.03;61.72
250;BME280;109;19.806;-70.704;2023-04-27T09:16:57;101187.19;;;25.03;61.80
250;BME280;109;19.806;-70.704;2023-04-27T09:19:31;101192.47;;;24.86;61.98
250;BME280;109;19.806;-70.704;2023-04-27T09:22:08;101195.41;;;24.82;61.80
250;BME280;109;19.806;-70.704;2023-04-27T09:24:52;101189.38;;;24.77;62.05
250;BME280;109;19.806;-70.704;2023-04-27T09:27:25;101185.16;;;24.71;62.51
250;BME280;109;19.806;-70.704;2023-04-27T09:29:52;101193.41;;;24.66;62.45
250;BME280;109;19.806;-70.704;2023-04-27T09:32:25;101188.59;;;24.73;62.49
250;BME280;109;19.806;-70.704;2023-04-27T09:34:52;101192.22;;;24.72;62.20
250;BME280;109;19.806;-70.704;2023-04-27T09:37:24;101200.69;;;24.63;62.35
250;BME280;109;19.806;-70.704;2023-04-27T09:40:12;101205.97;;;24.64;62.62
250;BME280;109;19.806;-70.704;2023-04-27T09:42:46;101212.06;;;24.68;62.53
250;BME280;109;19.806;-70.704;2023-04-27T09:45:13;101219.28;;;24.66;62.41
250;BME280;109;19.806;-70.704;2023-04-27T09:47:46;101220.59;;;24.57;62.62
250;BME280;109;19.806;-70.704;2023-04-27T09:50:14;101226.66;;;24.61;62.54
250;BME280;109;19.806;-70.704;2023-04-27T09:52:48;101218.56;;;24.62;62.92
250;BME280;109;19.806;-70.704;2023-04-27T09:55:23;101225.38;;;24.69;62.35
250;BME280;109;19.806;-70.704;2023-04-27T10:03:56;101245.25;;;24.64;62.66
250;BME280;109;19.806;-70.704;2023-04-27T10:07:02;101243.72;;;24.58;62.69
250;BME280;109;19.806;-70.704;2023-04-27T10:09:41;101245.63;;;24.56;62.59
250;BME280;109;19.806;-70.704;2023-04-27T10:12:25;101250.91;;;24.58;62.67
250;BME280;109;19.806;-70.704;2023-04-27T10:15:10;101252.72;;;24.57;62.89
250;BME280;109;19.806;-70.704;2023-04-27T10:17:48;101254.03;;;24.47;62.88
250;BME280;109;19.806;-70.704;2023-04-27T10:20:35;101263.94;;;24.45;63.05
250;BME280;109;19.806;-70.704;2023-04-27T10:23:09;101259.38;;;24.47;62.97
250;BME280;109;19.806;-70.704;2023-04-27T10:25:39;101270.91;;;24.49;62.86
250;BME280;109;19.806;-70.704;2023-04-27T10:28:16;101270.63;;;24.55;62.94
250;BME280;109;19.806;-70.704;2023-04-27T10:33:41;101282.03;;;24.59;62.88
250;BME280;109;19.806;-70.704;2023-04-27T10:36:21;101283.84;;;24.58;62.70
250;BME280;109;19.806;-70.704;2023-04-27T10:38:55;101293.06;;;24.71;62.70
250;BME280;109;19.806;-70.704;2023-04-27T10:41:36;101292.03;;;24.75;62.45
250;BME280;109;19.806;-70.704;2023-04-27T10:44:16;101300.06;;;24.75;62.33
250;BME280;109;19.806;-70.704;2023-04-27T10:47:16;101300.06;;;24.75;62.29
250;BME280;109;19.806;-70.704;2023-04-27T10:49:53;101302.69;;;24.77;62.23
250;BME280;109;19.806;-70.704;2023-04-27T10:52:19;101309.72;;;24.80;62.50
250;BME280;109;19.806;-70.704;2023-04-27T10:54:46;101316.06;;;24.77;62.39
250;BME280;109;19.806;-70.704;2023-04-27T10:57:13;101317.88;;;24.77;62.36
250;BME280;109;19.806;-70.704;2023-04-27T10:59:50;101321.28;;;24.80;61.87
250;BME280;109;19.806;-70.704;2023-04-27T11:02:24;101319.47;;;24.81;62.40
250;BME280;109;19.806;-70.704;2023-04-27T11:04:51;101330.50;;;24.93;62.28
250;BME280;109;19.806;-70.704;2023-04-27T11:07:25;101342.78;;;24.97;61.87
250;BME280;109;19.806;-70.704;2023-04-27T11:09:52;101336.44;;;25.00;62.02
250;BME280;109;19.806;-70.704;2023-04-27T11:12:19;101341.69;;;25.22;61.46
250;BME280;109;19.806;-70.704;2023-04-27T11:14:46;101347.31;;;25.36;61.06
250;BME280;109;19.806;-70.704;2023-04-27T11:17:13;101357.53;;;25.47;61.28
250;BME280;109;19.806;-70.704;2023-04-27T11:19:48;101363.38;;;25.55;60.71
250;BME280;109;19.806;-70.704;2023-04-27T11:22:15;101364.84;;;25.62;61.02
250;BME280;109;19.806;-70.704;2023-04-27T11:24:48;101365.59;;;25.83;60.60
250;BME280;109;19.806;-70.704;2023-04-27T11:27:16;101365.28;;;26.07;60.20
250;BME280;109;19.806;-70.704;2023-04-27T11:29:43;101365.47;;;26.22;59.39
250;BME280;109;19.806;-70.704;2023-04-27T11:32:20;101369.19;;;26.36;59.12
250;BME280;109;19.806;-70.704;2023-04-27T11:34:50;101372.31;;;26.63;58.83
250;BME280;109;19.806;-70.704;2023-04-27T11:37:22;101370.31;;;26.67;58.57
250;BME280;109;19.806;-70.704;2023-04-27T11:39:51;101366.00;;;26.64;58.84
250;BME280;109;19.806;-70.704;2023-04-27T11:42:20;101378.63;;;26.62;58.62
250;BME280;109;19.806;-70.704;2023-04-27T11:45:13;101373.22;;;26.79;58.47
250;BME280;109;19.806;-70.704;2023-04-27T11:47:45;101383.78;;;26.82;58.42
250;BME280;109;19.806;-70.704;2023-04-27T11:50:12;101388.38;;;26.80;58.37
250;BME280;109;19.806;-70.704;2023-04-27T11:52:39;101395.47;;;26.81;58.91
250;BME280;109;19.806;-70.704;2023-04-27T11:55:06;101399.59;;;26.71;58.98
250;BME280;109;19.806;-70.704;2023-04-27T11:57:35;101405.13;;;26.68;58.74
250;BME280;109;19.806;-70.704;2023-04-27T12:00:05;101408.16;;;26.62;58.86
250;BME280;109;19.806;-70.704;2023-04-27T12:02:42;101405.09;;;26.53;59.22
250;BME280;109;19.806;-70.704;2023-04-27T12:05:09;101411.47;;;26.50;59.17
250;BME280;109;19.806;-70.704;2023-04-27T12:07:37;101407.25;;;26.44;59.02
250;BME280;109;19.806;-70.704;2023-04-27T12:10:04;101406.31;;;26.80;59.47
250;BME280;109;19.806;-70.704;2023-04-27T12:12:31;101404.84;;;26.92;59.30
250;BME280;109;19.806;-70.704;2023-04-27T12:14:58;101395.63;;;27.13;58.82
250;BME280;109;19.806;-70.704;2023-04-27T12:17:25;101397.78;;;27.39;58.39
250;BME280;109;19.806;-70.704;2023-04-27T12:19:51;101401.47;;;27.54;57.99
250;BME280;109;19.806;-70.704;2023-04-27T12:22:18;101394.97;;;27.89;57.72
250;BME280;109;19.806;-70.704;2023-04-27T12:24:45;101402.34;;;28.02;57.17
250;BME280;109;19.806;-70.704;2023-04-27T12:27:12;101407.03;;;27.98;57.26
250;BME280;109;19.806;-70.704;2023-04-27T12:29:38;101407.91;;;27.99;57.07
250;BME280;109;19.806;-70.704;2023-04-27T12:32:05;101413.50;;;27.96;56.97
250;BME280;109;19.806;-70.704;2023-04-27T12:34:31;101411.81;;;27.93;57.56
250;BME280;109;19.806;-70.704;2023-04-27T12:36:58;101403.56;;;27.80;57.47
250;BME280;109;19.806;-70.704;2023-04-27T12:39:24;101397.47;;;27.92;57.44
250;BME280;109;19.806;-70.704;2023-04-27T12:41:52;101389.84;;;28.01;57.27
250;BME280;109;19.806;-70.704;2023-04-27T12:44:19;101386.53;;;28.11;57.48
250;BME280;109;19.806;-70.704;2023-04-27T12:46:46;101390.16;;;28.26;57.43
250;BME280;109;19.806;-70.704;2023-04-27T12:49:13;101386.81;;;28.37;57.10
250;BME280;109;19.806;-70.704;2023-04-27T12:51:58;101394.31;;;28.32;56.67
250;BME280;109;19.806;-70.704;2023-04-27T12:54:24;101387.41;;;28.12;57.51
250;BME280;109;19.806;-70.704;2023-04-27T12:56:54;101381.88;;;27.68;58.00
250;BME280;109;19.806;-70.704;2023-04-27T12:59:21;101385.59;;;27.81;57.92
250;BME280;109;19.806;-70.704;2023-04-27T13:01:47;101386.47;;;27.97;57.71
250;BME280;109;19.806;-70.704;2023-04-27T13:04:18;101388.00;;;28.33;57.24
250;BME280;109;19.806;-70.704;2023-04-27T13:06:45;101397.75;;;28.49;57.33
250;BME280;109;19.806;-70.704;2023-04-27T13:09:12;101402.09;;;28.52;57.13
250;BME280;109;19.806;-70.704;2023-04-27T13:11:38;101394.72;;;28.40;57.00
250;BME280;109;19.806;-70.704;2023-04-27T13:14:05;101388.31;;;28.42;57.33
250;BME280;109;19.806;-70.704;2023-04-27T13:16:31;101396.06;;;28.33;57.67
250;BME280;109;19.806;-70.704;2023-04-27T13:18:58;101406.31;;;28.26;57.56
250;BME280;109;19.806;-70.704;2023-04-27T13:21:24;101401.50;;;28.01;58.24
250;BME280;109;19.806;-70.704;2023-04-27T13:23:51;101404.00;;;28.04;57.17
250;BME280;109;19.806;-70.704;2023-04-27T13:26:19;101399.22;;;27.94;57.76
250;BME280;109;19.806;-70.704;2023-04-27T13:28:46;101400.94;;;28.10;58.47
250;BME280;109;19.806;-70.704;2023-04-27T13:31:16;101403.41;;;27.99;57.89
250;BME280;109;19.806;-70.704;2023-04-27T13:33:43;101404.88;;;28.20;57.88
250;BME280;109;19.806;-70.704;2023-04-27T13:36:11;101399.72;;;28.47;57.05
250;BME280;109;19.806;-70.704;2023-04-27T13:38:38;101402.41;;;28.32;57.41
250;BME280;109;19.806;-70.704;2023-04-27T13:41:06;101406.31;;;28.26;58.25